»·PEaware :: SKW2720 KPDX-KPDT

SKW2720 :: KPDX-KPDT

FLIGHT INFORMATION

Flight Status: Arrived
Operator:
SkyWest Airlines
More flights by this operator :: More flights under this callsign
Pilot: Paul K. (16555)
Aircraft: BOEING 727-100
(B721)
More flights by this aircraft type
Origin: KPDX Portland Intl
United States
Destination: KPDT Eastern Oreg Regl At Pendleto
United States
More flights between these airports :: More routes between these airports
Route: PTLD1 BTG V112 PDT
File this flight plan on PilotEdge
Remarks:
Altitude:
(Current/Filed)
23,000ft
Speed:
(Current/Filed)
420kts
Departed: 07-Oct-18 04:20 PM
Arrived: 07-Oct-18 04:52 PM
Distance/Time
Traveled:
158nm/0:32
Distance/Time
To Go:
Arrived

Flight Plot

Page will automatically refresh every two minutes.

Flight plan parsing failed; only flown route is shown


Map Options




Map Legend


Flown Route
Filed Route
Departure Airport
Arrival Airport
Navaid (VOR, NDB)
Fix

Horizontal Profiles

Position Reports

Time Latitude Longitude Heading Altitude Ground
Speed
07-Oct-18 16:03 45.591166 -122.594059 208 41ft 0kts
07-Oct-18 16:04 45.591166 -122.594059 208 41ft 0kts
07-Oct-18 16:05 45.591166 -122.594059 208 41ft 0kts
07-Oct-18 16:06 45.591166 -122.594059 208 41ft 0kts
07-Oct-18 16:07 45.591166 -122.594059 208 41ft 0kts
07-Oct-18 16:08 45.591166 -122.594058 208 41ft 0kts
07-Oct-18 16:09 45.591166 -122.594058 208 41ft 0kts
07-Oct-18 16:10 45.591166 -122.594058 208 41ft 0kts
07-Oct-18 16:11 45.591554 -122.593756 196 41ft 2kts
07-Oct-18 16:12 45.592081 -122.594011 124 41ft 2kts
07-Oct-18 16:13 45.592126 -122.594123 118 41ft 0kts
07-Oct-18 16:14 45.592126 -122.594123 118 41ft 0kts
07-Oct-18 16:15 45.592126 -122.594123 118 41ft 0kts
07-Oct-18 16:16 45.592072 -122.594163 276 41ft 0kts
07-Oct-18 16:17 45.593351 -122.597213 299 41ft 13kts
07-Oct-18 16:18 45.594249 -122.597753 38 41ft 0kts
07-Oct-18 16:19 45.594249 -122.597753 38 41ft 0kts
07-Oct-18 16:20 45.594249 -122.597753 38 41ft 0kts
07-Oct-18 16:21 45.594754 -122.595528 120 41ft 19kts
07-Oct-18 16:22 45.579658 -122.554845 115 1653ft 143kts
07-Oct-18 16:23 45.554979 -122.490674 118 3727ft 230kts
07-Oct-18 16:24 45.519651 -122.401597 117 7371ft 269kts
07-Oct-18 16:25 45.480618 -122.305027 117 10435ft 309kts
07-Oct-18 16:26 45.473089 -122.186860 49 12636ft 339kts
07-Oct-18 16:27 45.533733 -122.084690 43 15846ft 348kts
07-Oct-18 16:28 45.595769 -121.976937 43 18663ft 360kts
07-Oct-18 16:29 45.658278 -121.864206 43 21098ft 370kts
07-Oct-18 16:30 45.713231 -121.738477 68 22936ft 399kts
07-Oct-18 16:31 45.722279 -121.568483 81 23182ft 466kts
07-Oct-18 16:32 45.720415 -121.386322 83 23174ft 494kts
07-Oct-18 16:33 45.716382 -121.221245 85 23167ft 490kts
07-Oct-18 16:34 45.706092 -121.030896 94 23176ft 489kts
07-Oct-18 16:35 45.678706 -120.843020 94 23170ft 484kts
07-Oct-18 16:36 45.652614 -120.656050 94 23172ft 483kts
07-Oct-18 16:37 45.626421 -120.469051 94 23174ft 484kts
07-Oct-18 16:38 45.601485 -120.295573 94 23159ft 453kts
07-Oct-18 16:39 45.576750 -120.126011 94 23173ft 437kts
07-Oct-18 16:40 45.552097 -119.955683 94 23170ft 438kts
07-Oct-18 16:41 45.528043 -119.791918 93 22907ft 409kts
07-Oct-18 16:42 45.531536 -119.643516 51 21069ft 356kts
07-Oct-18 16:43 45.571409 -119.513726 61 19190ft 361kts
07-Oct-18 16:44 45.600749 -119.390419 64 17225ft 303kts
07-Oct-18 16:45 45.623878 -119.285295 67 14739ft 291kts
07-Oct-18 16:46 45.647584 -119.175728 69 11668ft 290kts
07-Oct-18 16:47 45.664606 -119.065340 81 8590ft 284kts
07-Oct-18 16:48 45.670092 -118.959531 93 5733ft 252kts
07-Oct-18 16:49 45.663976 -118.864732 95 4664ft 221kts
07-Oct-18 16:50 45.660763 -118.791898 89 4113ft 154kts
07-Oct-18 16:51 45.672041 -118.742023 4 3222ft 152kts
07-Oct-18 16:52 45.696102 -118.771242 267 2461ft 140kts
07-Oct-18 16:53 45.695364 -118.823961 268 1593ft 128kts
07-Oct-18 16:54 45.694797 -118.853190 186 1509ft 15kts
07-Oct-18 16:55 45.694157 -118.847976 116 1509ft 2kts
07-Oct-18 16:56 45.692163 -118.847806 179 1509ft 12kts
07-Oct-18 16:57 45.690354 -118.847707 169 1509ft 11kts
07-Oct-18 16:58 45.690033 -118.842820 87 1509ft 14kts
07-Oct-18 16:59 45.689883 -118.840503 135 1509ft 0kts
07-Oct-18 17:00 45.689883 -118.840503 135 1509ft 0kts
07-Oct-18 17:01 45.689883 -118.840503 135 1509ft 0kts
07-Oct-18 17:02 45.689883 -118.840503 135 1509ft 0kts
07-Oct-18 17:03 45.689883 -118.840503 135 1509ft 0kts
07-Oct-18 17:04 45.689883 -118.840503 135 1509ft 0kts
07-Oct-18 17:05 45.689883 -118.840503 135 1509ft 0kts
07-Oct-18 17:06 45.689883 -118.840503 135 1509ft 0kts
07-Oct-18 17:07 45.689883 -118.840503 135 1509ft 0kts
07-Oct-18 17:08 45.689883 -118.840503 135 1509ft 0kts

Navigation Log

Ident Type
Flight plan parsing failed, navigation log unavailable